createdAt,value
2023-02-28T00:00:00.896Z,5.77
2023-02-28T00:04:02.616Z,4.80
2023-02-28T00:08:04.135Z,5.10
2023-02-28T00:12:10.936Z,4.73
2023-02-28T00:16:15.823Z,7.00
2023-02-28T00:20:17.909Z,5.57
2023-02-28T00:24:19.293Z,5.20
2023-02-28T00:28:21.833Z,5.13
2023-02-28T00:32:23.300Z,4.57
2023-02-28T00:36:24.680Z,5.77
2023-02-28T00:40:26.188Z,6.27
2023-02-28T00:44:27.615Z,4.80
2023-02-28T00:48:29.095Z,4.67
2023-02-28T00:52:30.474Z,4.50
2023-02-28T00:56:31.889Z,4.53
2023-02-28T01:00:33.284Z,4.77
2023-02-28T01:04:34.851Z,7.17
2023-02-28T01:08:36.242Z,6.47
2023-02-28T01:12:37.726Z,4.80
2023-02-28T01:16:39.031Z,5.30
2023-02-28T01:20:40.487Z,5.60
2023-02-28T01:24:41.801Z,5.37
2023-02-28T01:28:43.628Z,5.13
2023-02-28T01:32:45.009Z,5.80
2023-02-28T01:36:46.790Z,4.80
2023-02-28T01:40:48.108Z,7.37
2023-02-28T01:45:00.750Z,6.50
2023-02-28T01:49:15.725Z,6.70
2023-02-28T01:53:20.448Z,5.00
2023-02-28T01:57:26.191Z,5.03
2023-02-28T02:01:28.948Z,5.07
2023-02-28T02:05:35.255Z,4.70
2023-02-28T02:09:36.562Z,5.23
2023-02-28T02:14:05.002Z,4.70
2023-02-28T02:18:15.368Z,4.90
2023-02-28T02:22:42.839Z,4.67
2023-02-28T02:27:08.710Z,4.40
2023-02-28T02:31:47.501Z,5.43
2023-02-28T02:36:05.432Z,5.03
2023-02-28T02:40:15.779Z,5.50
2023-02-28T02:44:37.269Z,4.83
2023-02-28T02:48:42.710Z,4.57
2023-02-28T02:52:52.023Z,4.37
2023-02-28T02:56:53.415Z,5.20
2023-02-28T03:01:00.209Z,4.93
2023-02-28T03:05:07.545Z,6.17
2023-02-28T03:09:08.918Z,4.50
2023-02-28T03:13:30.726Z,4.40
2023-02-28T03:17:53.313Z,5.77
2023-02-28T03:22:13.288Z,4.63
2023-02-28T03:26:23.533Z,4.20
2023-02-28T03:30:42.507Z,4.63
2023-02-28T03:34:54.896Z,5.03
2023-02-28T03:39:06.348Z,4.90
2023-02-28T03:43:13.892Z,5.17
2023-02-28T03:47:29.983Z,5.37
2023-02-28T03:51:33.309Z,4.30
2023-02-28T03:55:44.256Z,4.83
2023-02-28T03:59:50.731Z,5.00
2023-02-28T04:03:52.657Z,5.00
2023-02-28T04:07:54.970Z,4.60
2023-02-28T04:11:59.064Z,4.87
2023-02-28T04:16:00.575Z,5.43
2023-02-28T04:20:02.018Z,5.03
2023-02-28T04:24:04.256Z,5.87
2023-02-28T04:28:05.627Z,5.63
2023-02-28T04:32:07.031Z,5.87
2023-02-28T04:36:09.789Z,5.60
2023-02-28T04:40:11.806Z,6.80
2023-02-28T04:44:13.799Z,6.20
2023-02-28T04:48:15.169Z,6.17
2023-02-28T04:52:16.503Z,5.93
2023-02-28T04:56:18.736Z,5.67
2023-02-28T05:00:20.380Z,7.07
2023-02-28T05:04:21.917Z,5.17
2023-02-28T05:08:23.344Z,5.03
2023-02-28T05:12:24.655Z,4.93
2023-02-28T05:16:26.110Z,5.17
2023-02-28T05:20:27.482Z,5.63
2023-02-28T05:24:28.875Z,6.17
2023-02-28T05:28:30.161Z,5.67
2023-02-28T05:32:31.579Z,5.33
2023-02-28T05:36:33.119Z,5.43
2023-02-28T05:40:34.530Z,5.60
2023-02-28T05:44:37.063Z,5.63
2023-02-28T05:48:40.130Z,5.20
2023-02-28T05:52:41.571Z,5.03
2023-02-28T05:56:45.061Z,6.80
2023-02-28T06:00:46.654Z,4.77
2023-02-28T06:04:48.021Z,5.70
2023-02-28T06:08:49.377Z,5.87
2023-02-28T06:12:50.737Z,5.87
2023-02-28T06:16:52.771Z,5.70
2023-02-28T06:20:55.476Z,5.67
2023-02-28T06:24:58.020Z,5.40
2023-02-28T06:28:59.467Z,5.07
2023-02-28T06:33:00.750Z,4.93
2023-02-28T06:37:03.186Z,5.40
2023-02-28T06:41:05.424Z,5.00
2023-02-28T06:45:10.376Z,4.50
2023-02-28T06:49:12.998Z,5.67
2023-02-28T06:53:14.332Z,5.17
2023-02-28T06:57:15.825Z,5.67
2023-02-28T07:01:18.598Z,5.70
2023-02-28T07:05:20.099Z,6.47
2023-02-28T07:09:21.439Z,5.40
2023-02-28T07:13:23.810Z,5.77
2023-02-28T07:17:25.263Z,5.70
2023-02-28T07:21:26.602Z,5.27
2023-02-28T07:25:29.562Z,5.17
2023-02-28T07:29:31.057Z,6.07
2023-02-28T07:33:32.535Z,5.20
2023-02-28T07:37:37.402Z,5.93
2023-02-28T07:41:44.204Z,6.20
2023-02-28T07:45:45.657Z,5.13
2023-02-28T07:49:47.011Z,5.07
2023-02-28T07:53:48.369Z,4.83
2023-02-28T07:57:49.714Z,4.77
2023-02-28T08:01:51.325Z,4.93
2023-02-28T08:05:53.635Z,4.23
2023-02-28T08:09:55.058Z,3.93
2023-02-28T08:13:56.541Z,3.93
2023-02-28T08:17:57.951Z,3.87
2023-02-28T08:21:59.551Z,3.70
2023-02-28T08:26:00.888Z,4.30
2023-02-28T08:30:02.328Z,3.97
2023-02-28T08:34:11.704Z,4.03
2023-02-28T08:38:13.048Z,3.20
2023-02-28T08:42:14.375Z,3.50
2023-02-28T08:46:15.871Z,3.30
2023-02-28T08:50:17.533Z,3.03
2023-02-28T08:54:20.329Z,3.67
2023-02-28T08:58:21.655Z,2.93
2023-02-28T09:02:23.048Z,3.00
2023-02-28T09:06:26.620Z,2.90
2023-02-28T09:10:28.008Z,2.60
2023-02-28T09:14:29.582Z,2.47
2023-02-28T09:18:30.894Z,2.43
2023-02-28T09:22:32.185Z,2.40
2023-02-28T09:26:39.096Z,2.90
2023-02-28T09:30:51.216Z,3.97
2023-02-28T09:34:52.696Z,6.03
2023-02-28T09:38:54.182Z,5.57
2023-02-28T09:42:58.612Z,5.67
2023-02-28T09:47:35.884Z,2.77
2023-02-28T09:51:46.430Z,2.23
2023-02-28T09:55:56.134Z,3.00
2023-02-28T10:00:11.330Z,2.20
2023-02-28T10:04:33.781Z,2.40
2023-02-28T10:08:46.090Z,2.30
2023-02-28T10:12:48.195Z,2.93
2023-02-28T10:17:14.414Z,2.67
2023-02-28T10:21:26.265Z,2.10
2023-02-28T10:25:30.295Z,4.23
2023-02-28T10:29:34.191Z,2.50
2023-02-28T10:33:36.269Z,2.43
2023-02-28T10:37:43.274Z,2.30
2023-02-28T10:41:44.642Z,3.03
2023-02-28T10:45:59.519Z,2.63
2023-02-28T10:50:01.389Z,2.60
2023-02-28T10:54:03.812Z,3.67
2023-02-28T10:58:23.227Z,2.80
2023-02-28T11:02:37.060Z,3.00
2023-02-28T11:06:38.438Z,5.73
2023-02-28T11:10:39.937Z,3.23
2023-02-28T11:14:50.762Z,2.60
2023-02-28T11:18:56.332Z,2.57
2023-02-28T11:23:01.940Z,2.60
2023-02-28T11:27:03.657Z,2.83
2023-02-28T11:31:17.181Z,2.63
2023-02-28T11:35:25.779Z,2.83
2023-02-28T11:39:28.038Z,3.97
2023-02-28T11:43:48.119Z,3.60
2023-02-28T11:48:10.202Z,3.77
2023-02-28T11:52:38.975Z,2.60
2023-02-28T11:56:54.999Z,2.83
2023-02-28T12:01:22.875Z,3.53
2023-02-28T12:05:39.419Z,4.23
2023-02-28T12:10:21.186Z,5.03
2023-02-28T12:14:44.322Z,3.20
2023-02-28T12:19:13.157Z,3.57
2023-02-28T12:23:47.714Z,3.53
2023-02-28T12:27:51.324Z,3.30
2023-02-28T12:32:16.299Z,3.70
2023-02-28T12:36:22.802Z,5.20
2023-02-28T12:40:34.444Z,6.00
2023-02-28T12:44:45.248Z,5.43
2023-02-28T12:48:54.369Z,5.47
2023-02-28T12:53:10.421Z,5.87
2023-02-28T12:57:26.055Z,5.27
2023-02-28T13:01:33.891Z,6.10
2023-02-28T13:06:09.461Z,5.60
2023-02-28T13:10:11.299Z,5.27
2023-02-28T13:14:37.495Z,5.73
2023-02-28T13:18:41.063Z,5.07
2023-02-28T13:22:47.693Z,5.40
2023-02-28T13:26:51.740Z,6.07
2023-02-28T13:30:53.713Z,5.77
2023-02-28T13:34:55.102Z,6.20
2023-02-28T13:39:02.940Z,7.57
2023-02-28T13:43:08.223Z,5.67
2023-02-28T13:47:25.518Z,5.73
2023-02-28T13:51:41.912Z,5.67
2023-02-28T13:55:52.921Z,5.83
2023-02-28T14:00:31.361Z,5.60
2023-02-28T14:04:45.011Z,6.13
2023-02-28T14:09:05.073Z,5.33
2023-02-28T14:13:35.265Z,5.47
2023-02-28T14:17:38.281Z,6.20
2023-02-28T14:21:52.402Z,5.23
2023-02-28T14:26:19.262Z,5.47
2023-02-28T14:30:41.444Z,4.50
2023-02-28T14:35:01.249Z,6.30
2023-02-28T14:39:08.164Z,5.60
2023-02-28T14:43:23.121Z,6.00
2023-02-28T14:47:29.478Z,5.13
2023-02-28T14:51:31.305Z,5.83
2023-02-28T14:55:36.814Z,5.70
2023-02-28T14:59:38.206Z,5.87
2023-02-28T15:03:40.710Z,5.90
2023-02-28T15:07:42.098Z,5.90
2023-02-28T15:11:48.055Z,5.60
2023-02-28T15:16:03.753Z,6.00
2023-02-28T15:20:06.074Z,5.50
2023-02-28T15:24:07.760Z,6.00
2023-02-28T15:28:19.381Z,5.20
2023-02-28T15:32:31.394Z,5.80
2023-02-28T15:36:38.074Z,5.50
2023-02-28T15:40:43.851Z,6.07
2023-02-28T15:44:45.330Z,5.93
2023-02-28T15:48:55.808Z,5.53
2023-02-28T15:52:57.367Z,5.30
2023-02-28T15:57:09.772Z,5.57
2023-02-28T16:01:22.911Z,6.00
2023-02-28T16:05:28.927Z,5.97
2023-02-28T16:09:34.232Z,6.10
2023-02-28T16:13:36.314Z,5.73
2023-02-28T16:17:40.035Z,5.23
2023-02-28T16:21:41.496Z,5.13
2023-02-28T16:25:45.663Z,5.60
2023-02-28T16:29:48.402Z,5.30
2023-02-28T16:33:49.872Z,4.70
2023-02-28T16:37:52.636Z,5.37
2023-02-28T16:41:54.050Z,5.63
2023-02-28T16:46:01.115Z,5.63
2023-02-28T16:50:02.784Z,5.67
2023-02-28T16:54:04.720Z,5.60
2023-02-28T16:58:06.511Z,5.93
2023-02-28T17:02:16.311Z,5.90
2023-02-28T17:06:24.359Z,6.80
2023-02-28T17:10:27.563Z,5.90
2023-02-28T17:14:28.988Z,6.40
2023-02-28T17:18:34.610Z,6.53
2023-02-28T17:22:36.025Z,6.37
2023-02-28T17:26:37.487Z,7.53
2023-02-28T17:30:38.822Z,7.00
2023-02-28T17:34:40.139Z,7.60
2023-02-28T17:38:42.021Z,9.40
2023-02-28T17:42:44.314Z,7.23
2023-02-28T17:46:46.807Z,8.27
2023-02-28T17:50:48.258Z,7.17
2023-02-28T17:54:49.612Z,6.50
2023-02-28T17:58:53.523Z,5.87
2023-02-28T18:02:55.137Z,5.10
2023-02-28T18:07:00.809Z,9.30
2023-02-28T18:11:02.354Z,5.63
2023-02-28T18:15:04.293Z,9.83
2023-02-28T18:19:06.913Z,7.07
2023-02-28T18:23:08.278Z,6.30
2023-02-28T18:27:11.052Z,6.73
2023-02-28T18:31:16.074Z,6.13
2023-02-28T18:35:34.378Z,8.90
2023-02-28T18:39:35.811Z,7.33
2023-02-28T18:43:40.281Z,7.20
2023-02-28T18:47:41.786Z,14.40
2023-02-28T18:51:45.319Z,14.33
2023-02-28T18:55:46.810Z,8.83
2023-02-28T18:59:48.137Z,7.80
2023-02-28T19:03:50.753Z,7.57
2023-02-28T19:07:52.218Z,7.73
2023-02-28T19:11:53.568Z,7.87
2023-02-28T19:16:02.385Z,8.40
2023-02-28T19:20:05.193Z,8.13
2023-02-28T19:24:06.616Z,10.13
2023-02-28T19:28:07.981Z,9.53
2023-02-28T19:32:09.511Z,10.27
2023-02-28T19:36:12.658Z,11.10
2023-02-28T19:40:14.123Z,9.73
2023-02-28T19:44:15.425Z,7.43
2023-02-28T19:48:16.770Z,7.67
2023-02-28T19:52:18.154Z,8.00
2023-02-28T19:56:21.125Z,8.73
2023-02-28T20:00:22.552Z,8.10
2023-02-28T20:04:25.131Z,7.87
2023-02-28T20:08:28.503Z,8.60
2023-02-28T20:12:29.877Z,8.93
2023-02-28T20:16:32.603Z,11.80
2023-02-28T20:20:37.500Z,10.13
2023-02-28T20:24:38.924Z,10.63
2023-02-28T20:28:43.531Z,10.13
2023-02-28T20:32:44.826Z,9.17
2023-02-28T20:36:46.223Z,9.07
2023-02-28T20:40:47.708Z,9.50
2023-02-28T20:44:50.409Z,9.50
2023-02-28T20:48:52.259Z,8.87
2023-02-28T20:52:53.582Z,9.07
2023-02-28T20:56:54.983Z,11.07
2023-02-28T21:01:01.019Z,9.50
2023-02-28T21:05:02.917Z,9.60
2023-02-28T21:09:09.294Z,8.97
2023-02-28T21:13:10.656Z,9.37
2023-02-28T21:17:12.039Z,9.20
2023-02-28T21:21:15.682Z,10.33
2023-02-28T21:25:17.228Z,9.70
2023-02-28T21:29:18.646Z,12.07
2023-02-28T21:33:20.031Z,10.27
2023-02-28T21:37:21.428Z,10.90
2023-02-28T21:41:26.455Z,10.53
2023-02-28T21:45:29.224Z,10.50
2023-02-28T21:49:30.741Z,10.17
2023-02-28T21:53:33.682Z,9.73
2023-02-28T21:57:35.893Z,9.70
2023-02-28T22:01:40.254Z,9.87
2023-02-28T22:05:41.684Z,10.10
2023-02-28T22:09:43.165Z,10.33
2023-02-28T22:13:50.686Z,10.87
2023-02-28T22:17:52.178Z,9.50
2023-02-28T22:21:53.957Z,10.40
2023-02-28T22:25:55.670Z,9.43
2023-02-28T22:29:57.767Z,9.13
2023-02-28T22:34:06.311Z,9.70
2023-02-28T22:38:08.057Z,8.77
2023-02-28T22:42:09.722Z,9.53
2023-02-28T22:46:13.266Z,8.67
2023-02-28T22:50:15.003Z,9.83
2023-02-28T22:54:16.642Z,9.67
2023-02-28T22:58:17.947Z,9.43
2023-02-28T23:02:19.288Z,9.23
2023-02-28T23:06:28.520Z,9.47
2023-02-28T23:10:30.148Z,9.50
2023-02-28T23:14:31.471Z,9.23
2023-02-28T23:18:33.539Z,10.37
2023-02-28T23:22:34.897Z,11.33
2023-02-28T23:26:38.476Z,9.73
2023-02-28T23:30:39.766Z,9.77
2023-02-28T23:35:00.537Z,11.57
2023-02-28T23:39:02.021Z,9.77
2023-02-28T23:43:03.494Z,10.13
2023-02-28T23:47:04.942Z,10.47
2023-02-28T23:51:09.219Z,11.23
2023-02-28T23:55:11.211Z,9.30
2023-02-28T23:59:12.688Z,9.40
